createdAt,value
2022-10-10T00:04:02.514Z,84.74
2022-10-10T00:09:07.773Z,84.31
2022-10-10T00:14:11.025Z,83.16
2022-10-10T00:19:14.528Z,83.75
2022-10-10T00:24:17.739Z,84.51
2022-10-10T00:29:22.133Z,85.24
2022-10-10T00:34:30.264Z,83.67
2022-10-10T00:39:33.980Z,84.35
2022-10-10T00:44:37.180Z,83.75
2022-10-10T00:49:43.626Z,83.81
2022-10-10T00:54:46.946Z,83.81
2022-10-10T00:59:54.816Z,84.96
2022-10-10T01:04:58.462Z,85.54
2022-10-10T01:10:12.627Z,84.81
2022-10-10T01:15:40.789Z,84.66
2022-10-10T01:20:50.234Z,84.24
2022-10-10T01:25:56.627Z,84.75
2022-10-10T01:31:05.636Z,84.51
2022-10-10T01:36:34.131Z,84.77
2022-10-10T01:41:41.948Z,84.91
2022-10-10T01:46:45.221Z,84.38
2022-10-10T01:52:08.429Z,85.77
2022-10-10T01:57:21.183Z,84.29
2022-10-10T02:03:02.642Z,84.47
2022-10-10T02:08:11.505Z,84.99
2022-10-10T02:13:16.270Z,84.24
2022-10-10T02:18:25.818Z,83.16
2022-10-10T02:23:30.366Z,84.27
2022-10-10T02:28:58.144Z,84.80
2022-10-10T02:34:14.458Z,84.99
2022-10-10T02:39:19.387Z,86.02
2022-10-10T02:44:23.856Z,85.22
2022-10-10T02:49:30.449Z,84.85
2022-10-10T02:54:33.720Z,85.71
2022-10-10T02:59:36.984Z,85.63
2022-10-10T03:04:40.490Z,85.53
2022-10-10T03:09:46.914Z,84.49
2022-10-10T03:14:56.306Z,85.40
2022-10-10T03:20:03.151Z,85.62
2022-10-10T03:25:16.416Z,86.35
2022-10-10T03:30:22.674Z,86.08
2022-10-10T03:35:31.631Z,85.52
2022-10-10T03:40:46.900Z,85.27
2022-10-10T03:46:15.772Z,84.82
2022-10-10T03:51:21.067Z,85.50
2022-10-10T03:56:36.547Z,85.33
2022-10-10T04:01:40.370Z,85.16
2022-10-10T04:06:47.347Z,85.92
2022-10-10T04:11:51.838Z,85.93
2022-10-10T04:16:57.765Z,85.40
2022-10-10T04:22:03.312Z,86.47
2022-10-10T04:27:06.503Z,85.78
2022-10-10T04:32:11.332Z,84.76
2022-10-10T04:37:15.089Z,85.00
2022-10-10T04:42:18.203Z,86.20
2022-10-10T04:47:21.441Z,86.24
2022-10-10T04:52:24.704Z,86.70
2022-10-10T04:57:27.946Z,87.02
2022-10-10T05:02:32.060Z,87.53
2022-10-10T05:07:35.295Z,87.10
2022-10-10T05:12:38.461Z,87.56
2022-10-10T05:17:41.831Z,87.91
2022-10-10T05:22:44.997Z,87.96
2022-10-10T05:27:48.275Z,86.75
2022-10-10T05:32:51.559Z,86.95
2022-10-10T05:38:00.101Z,87.12
2022-10-10T05:43:03.392Z,87.36
2022-10-10T05:48:06.613Z,88.26
2022-10-10T05:53:09.748Z,88.95
2022-10-10T05:58:16.229Z,88.65
2022-10-10T06:03:19.527Z,88.77
2022-10-10T06:08:22.860Z,89.21
2022-10-10T06:13:26.039Z,89.46
2022-10-10T06:18:29.382Z,88.86
2022-10-10T06:23:39.746Z,88.33
2022-10-10T06:28:43.747Z,87.28
2022-10-10T06:33:49.905Z,86.44
2022-10-10T06:38:53.883Z,87.44
2022-10-10T06:43:59.894Z,87.95
2022-10-10T06:49:05.349Z,87.89
2022-10-10T06:54:16.493Z,87.61
2022-10-10T06:59:22.476Z,86.46
2022-10-10T07:04:29.422Z,85.62
2022-10-10T07:09:34.761Z,86.22
2022-10-10T07:14:38.791Z,85.35
2022-10-10T07:19:45.753Z,85.10
2022-10-10T07:24:57.954Z,84.96
2022-10-10T07:30:04.002Z,85.22
2022-10-10T07:35:12.613Z,85.10
2022-10-10T07:40:17.122Z,84.43
2022-10-10T07:45:23.954Z,84.63
2022-10-10T07:50:27.474Z,84.47
2022-10-10T07:55:31.318Z,84.16
2022-10-10T08:00:36.321Z,83.83
2022-10-10T08:05:44.370Z,83.35
2022-10-10T08:10:48.888Z,83.22
2022-10-10T08:15:55.480Z,82.95
2022-10-10T08:21:06.953Z,82.22
2022-10-10T08:26:15.207Z,82.25
2022-10-10T08:31:23.317Z,81.66
2022-10-10T08:36:31.198Z,81.73
2022-10-10T08:42:02.223Z,81.30
2022-10-10T08:47:30.906Z,80.52
2022-10-10T08:52:51.403Z,80.49
2022-10-10T08:58:01.611Z,80.33
2022-10-10T09:03:16.480Z,79.91
2022-10-10T09:08:39.932Z,78.15
2022-10-10T09:13:58.876Z,78.97
2022-10-10T09:19:28.978Z,78.33
2022-10-10T09:24:48.179Z,78.10
2022-10-10T09:30:07.638Z,77.44
2022-10-10T09:35:27.779Z,77.02
2022-10-10T09:40:38.917Z,75.43
2022-10-10T09:45:49.311Z,75.44
2022-10-10T09:50:53.594Z,73.87
2022-10-10T09:55:59.354Z,73.40
2022-10-10T10:01:21.476Z,71.97
2022-10-10T10:06:31.257Z,73.42
2022-10-10T10:11:40.581Z,71.54
2022-10-10T10:16:44.136Z,70.36
2022-10-10T10:21:52.125Z,70.96
2022-10-10T10:27:34.049Z,69.42
2022-10-10T10:33:28.898Z,69.70
2022-10-10T10:38:38.336Z,67.93
2022-10-10T10:44:08.025Z,68.02
2022-10-10T10:49:17.939Z,66.31
2022-10-10T10:54:40.753Z,65.49
2022-10-10T11:00:22.344Z,66.46
2022-10-10T11:05:36.772Z,66.46
2022-10-10T11:11:10.892Z,64.98
2022-10-10T11:16:46.868Z,65.57
2022-10-10T11:21:51.112Z,64.55
2022-10-10T11:26:57.580Z,64.62
2022-10-10T11:32:16.227Z,63.58
2022-10-10T11:37:26.479Z,63.11
2022-10-10T11:42:43.604Z,63.83
2022-10-10T11:47:56.019Z,63.35
2022-10-10T11:53:06.788Z,61.99
2022-10-10T11:58:10.599Z,61.17
2022-10-10T12:03:19.885Z,60.29
2022-10-10T12:08:29.442Z,60.25
2022-10-10T12:13:34.920Z,60.25
2022-10-10T12:19:06.571Z,60.19
2022-10-10T12:24:14.544Z,60.74
2022-10-10T12:29:55.966Z,58.22
2022-10-10T12:35:01.345Z,59.63
2022-10-10T12:40:08.255Z,59.76
2022-10-10T12:45:30.678Z,59.09
2022-10-10T12:50:43.220Z,59.32
2022-10-10T12:55:51.038Z,59.23
2022-10-10T13:00:59.270Z,58.14
2022-10-10T13:06:11.357Z,58.85
2022-10-10T13:11:17.736Z,56.77
2022-10-10T13:16:32.595Z,57.11
2022-10-10T13:21:37.644Z,58.37
2022-10-10T13:26:46.113Z,56.16
2022-10-10T13:31:51.787Z,55.81
2022-10-10T13:36:57.188Z,56.91
2022-10-10T13:42:00.569Z,55.70
2022-10-10T13:47:38.318Z,56.67
2022-10-10T13:52:42.373Z,57.25
2022-10-10T13:57:48.129Z,57.65
2022-10-10T14:02:51.389Z,57.82
2022-10-10T14:07:55.405Z,58.38
2022-10-10T14:12:59.963Z,58.87
2022-10-10T14:18:10.817Z,59.60
2022-10-10T14:23:14.349Z,59.51
2022-10-10T14:28:37.785Z,59.86
2022-10-10T14:33:41.260Z,60.34
2022-10-10T14:38:44.580Z,60.50
2022-10-10T14:43:47.882Z,60.49
2022-10-10T14:48:51.120Z,59.69
2022-10-10T14:54:11.864Z,59.09
2022-10-10T14:59:47.766Z,60.05
2022-10-10T15:04:52.242Z,59.02
2022-10-10T15:15:22.789Z,58.90
2022-10-10T15:20:37.702Z,57.57
2022-10-10T15:25:47.404Z,58.73
2022-10-10T15:30:58.625Z,58.89
2022-10-10T15:36:12.279Z,58.51
2022-10-10T15:41:26.658Z,59.51
2022-10-10T15:46:40.960Z,60.11
2022-10-10T15:51:46.742Z,60.76
2022-10-10T15:56:54.691Z,61.63
2022-10-10T16:02:03.533Z,63.05
2022-10-10T16:07:24.504Z,63.70
2022-10-10T16:12:30.349Z,63.78
2022-10-10T16:17:33.910Z,64.72
2022-10-10T16:22:37.413Z,65.82
2022-10-10T16:27:42.572Z,64.58
2022-10-10T16:32:46.005Z,64.53
2022-10-10T16:37:49.836Z,66.11
2022-10-10T16:42:56.713Z,68.73
2022-10-10T16:48:11.940Z,69.18
2022-10-10T16:53:18.055Z,68.50
2022-10-10T16:58:21.287Z,67.71
2022-10-10T17:03:29.579Z,67.11
2022-10-10T17:08:37.226Z,67.42
2022-10-10T17:13:41.908Z,67.79
2022-10-10T17:18:45.291Z,70.55
2022-10-10T17:23:49.455Z,72.68
2022-10-10T17:29:01.019Z,73.67
2022-10-10T17:34:07.781Z,71.51
2022-10-10T17:39:11.028Z,70.64
2022-10-10T17:44:14.269Z,72.40
2022-10-10T17:49:20.032Z,74.75
2022-10-10T17:54:25.677Z,76.49
2022-10-10T17:59:33.758Z,77.55
2022-10-10T18:04:47.456Z,75.49
2022-10-10T18:09:56.428Z,74.27
2022-10-10T18:15:02.485Z,73.45
2022-10-10T18:20:06.356Z,73.49
2022-10-10T18:25:10.002Z,73.24
2022-10-10T18:30:16.998Z,73.49
2022-10-10T18:35:20.732Z,78.26
2022-10-10T18:40:25.350Z,78.90
2022-10-10T18:51:17.148Z,80.74
2022-10-10T18:56:25.743Z,80.84
2022-10-10T19:01:36.588Z,79.33
2022-10-10T19:06:56.010Z,77.25
2022-10-10T19:12:08.053Z,76.61
2022-10-10T19:17:16.400Z,76.09
2022-10-10T19:22:22.855Z,75.35
2022-10-10T19:27:28.312Z,76.80
2022-10-10T19:32:44.489Z,76.72
2022-10-10T19:37:57.464Z,76.05
2022-10-10T19:43:01.113Z,76.55
2022-10-10T19:48:06.967Z,77.41
2022-10-10T19:53:17.969Z,79.16
2022-10-10T19:58:22.344Z,80.64
2022-10-10T20:03:28.092Z,80.79
2022-10-10T20:08:34.301Z,80.70
2022-10-10T20:13:41.632Z,82.28
2022-10-10T20:18:48.065Z,83.34
2022-10-10T20:24:03.568Z,83.82
2022-10-10T20:29:11.348Z,84.06
2022-10-10T20:34:28.665Z,84.42
2022-10-10T20:39:40.107Z,84.74
2022-10-10T20:44:46.627Z,84.32
2022-10-10T20:49:56.377Z,84.27
2022-10-10T20:55:01.401Z,84.09
2022-10-10T21:00:11.472Z,83.94
2022-10-10T21:05:22.760Z,83.56
2022-10-10T21:10:28.108Z,83.80
2022-10-10T21:15:34.171Z,83.75
2022-10-10T21:20:37.486Z,83.98
2022-10-10T21:25:40.804Z,84.08
2022-10-10T21:30:51.738Z,84.02
2022-10-10T21:35:58.062Z,83.95
2022-10-10T21:41:06.551Z,84.00
2022-10-10T21:46:13.512Z,83.88
2022-10-10T21:51:19.963Z,83.59
2022-10-10T21:56:24.149Z,84.01
2022-10-10T22:01:33.473Z,84.09
2022-10-10T22:06:39.507Z,84.03
2022-10-10T22:11:44.733Z,84.14
2022-10-10T22:16:50.232Z,84.43
2022-10-10T22:21:53.791Z,84.99
2022-10-10T22:27:05.254Z,85.37
2022-10-10T22:32:08.537Z,85.83
2022-10-10T22:37:11.839Z,86.41
2022-10-10T22:42:15.590Z,86.39
2022-10-10T22:47:18.951Z,86.48
2022-10-10T22:52:22.548Z,87.29
2022-10-10T22:57:27.764Z,87.33
2022-10-10T23:02:34.109Z,87.37
2022-10-10T23:07:37.478Z,87.68
2022-10-10T23:12:41.381Z,87.56
2022-10-10T23:18:06.170Z,87.37
2022-10-10T23:23:12.267Z,87.35
2022-10-10T23:28:16.402Z,87.63
2022-10-10T23:33:19.654Z,87.78
2022-10-10T23:38:22.811Z,87.93
2022-10-10T23:43:26.560Z,86.89
2022-10-10T23:48:30.147Z,87.14
2022-10-10T23:53:34.630Z,87.20
2022-10-10T23:58:38.633Z,87.43
